createdAt,value
2023-04-09T00:00:49.432Z,24.48
2023-04-09T00:01:51.905Z,25.33
2023-04-09T00:02:53.577Z,23.92
2023-04-09T00:03:56.444Z,24.35
2023-04-09T00:04:58.182Z,25.17
2023-04-09T00:06:02.208Z,23.60
2023-04-09T00:07:03.709Z,24.77
2023-04-09T00:08:06.512Z,25.02
2023-04-09T00:09:08.069Z,24.98
2023-04-09T00:10:10.886Z,25.33
2023-04-09T00:11:12.397Z,25.50
2023-04-09T00:12:14.892Z,25.08
2023-04-09T00:13:22.575Z,26.63
2023-04-09T00:14:31.029Z,26.60
2023-04-09T00:15:32.518Z,26.13
2023-04-09T00:16:35.048Z,27.08
2023-04-09T00:17:36.777Z,26.85
2023-04-09T00:18:39.295Z,27.15
2023-04-09T00:19:40.880Z,29.60
2023-04-09T00:20:44.247Z,27.80
2023-04-09T00:21:48.263Z,29.17
2023-04-09T00:22:51.905Z,29.08
2023-04-09T00:23:53.426Z,29.35
2023-04-09T00:24:55.999Z,29.33
2023-04-09T00:25:57.550Z,28.70
2023-04-09T00:27:00.043Z,28.13
2023-04-09T00:28:01.689Z,28.77
2023-04-09T00:29:04.336Z,30.45
2023-04-09T00:30:07.259Z,28.80
2023-04-09T00:31:09.906Z,30.15
2023-04-09T00:32:11.446Z,29.42
2023-04-09T00:33:13.907Z,30.17
2023-04-09T00:34:15.868Z,29.55
2023-04-09T00:35:18.490Z,27.95
2023-04-09T00:36:19.995Z,29.92
2023-04-09T00:37:23.835Z,28.40
2023-04-09T00:38:25.403Z,29.48
2023-04-09T00:39:27.943Z,31.85
2023-04-09T00:40:29.582Z,30.05
2023-04-09T00:41:32.044Z,30.52
2023-04-09T00:42:34.517Z,29.85
2023-04-09T00:43:39.520Z,30.90
2023-04-09T00:44:41.077Z,29.75
2023-04-09T00:45:43.569Z,31.23
2023-04-09T00:46:45.249Z,31.63
2023-04-09T00:47:47.913Z,30.10
2023-04-09T00:48:49.720Z,30.83
2023-04-09T00:49:52.427Z,31.35
2023-04-09T00:50:54.049Z,32.10
2023-04-09T00:51:56.860Z,30.20
2023-04-09T00:53:00.470Z,29.20
2023-04-09T00:54:03.117Z,30.42
2023-04-09T00:55:06.007Z,30.15
2023-04-09T00:56:09.175Z,31.65
2023-04-09T00:57:11.296Z,31.60
2023-04-09T00:58:14.758Z,30.67
2023-04-09T00:59:16.474Z,31.33
2023-04-09T01:00:19.322Z,30.35
2023-04-09T01:01:20.912Z,30.30
2023-04-09T01:02:23.847Z,29.48
2023-04-09T01:03:25.862Z,29.98
2023-04-09T01:04:28.535Z,29.08
2023-04-09T01:05:37.950Z,30.30
2023-04-09T01:06:52.772Z,30.80
2023-04-09T01:08:08.783Z,28.10
2023-04-09T01:09:19.139Z,29.23
2023-04-09T01:10:28.593Z,23.13
2023-04-09T01:11:37.004Z,30.33
2023-04-09T01:12:51.222Z,28.10
2023-04-09T01:14:05.351Z,28.17
2023-04-09T01:15:09.910Z,27.95
2023-04-09T01:16:16.757Z,27.40
2023-04-09T01:17:24.348Z,27.85
2023-04-09T01:18:31.973Z,28.00
2023-04-09T01:19:42.805Z,28.13
2023-04-09T01:20:53.045Z,27.67
2023-04-09T01:21:57.832Z,27.63
2023-04-09T01:23:08.490Z,28.13
2023-04-09T01:24:21.189Z,20.92
2023-04-09T01:25:38.572Z,27.40
2023-04-09T01:26:54.764Z,29.27
2023-04-09T01:28:13.046Z,27.83
2023-04-09T01:29:17.603Z,27.77
2023-04-09T01:30:22.652Z,27.83
2023-04-09T01:31:30.088Z,28.42
2023-04-09T01:32:35.415Z,27.95
2023-04-09T01:33:38.458Z,29.05
2023-04-09T01:34:42.487Z,28.33
2023-04-09T01:35:46.718Z,28.95
2023-04-09T01:36:53.123Z,28.75
2023-04-09T01:37:55.844Z,28.00
2023-04-09T01:38:58.609Z,27.67
2023-04-09T01:40:00.403Z,27.40
2023-04-09T01:41:04.507Z,28.13
2023-04-09T01:42:09.673Z,28.27
2023-04-09T01:43:14.985Z,28.10
2023-04-09T01:44:17.834Z,27.35
2023-04-09T01:45:22.034Z,28.77
2023-04-09T01:46:25.471Z,28.60
2023-04-09T01:47:28.738Z,28.52
2023-04-09T01:48:31.567Z,27.98
2023-04-09T01:49:34.274Z,28.50
2023-04-09T01:50:35.881Z,27.38
2023-04-09T01:51:38.933Z,27.77
2023-04-09T01:52:41.190Z,27.35
2023-04-09T01:53:43.799Z,28.23
2023-04-09T01:54:45.293Z,26.98
2023-04-09T01:55:47.831Z,26.92
2023-04-09T01:56:49.462Z,27.38
2023-04-09T01:57:51.929Z,27.38
2023-04-09T01:58:55.026Z,28.50
2023-04-09T01:59:57.772Z,27.95
2023-04-09T02:01:05.606Z,28.45
2023-04-09T02:02:13.189Z,28.90
2023-04-09T02:03:18.850Z,27.15
2023-04-09T02:04:25.115Z,28.75
2023-04-09T02:05:31.808Z,28.83
2023-04-09T02:06:40.110Z,29.55
2023-04-09T02:07:45.425Z,29.42
2023-04-09T02:08:48.785Z,27.30
2023-04-09T02:09:53.291Z,29.17
2023-04-09T02:11:03.255Z,29.30
2023-04-09T02:12:07.046Z,28.58
2023-04-09T02:13:12.649Z,29.20
2023-04-09T02:14:16.302Z,29.23
2023-04-09T02:15:21.314Z,28.65
2023-04-09T02:16:23.392Z,28.90
2023-04-09T02:17:25.913Z,29.80
2023-04-09T02:18:29.539Z,28.55
2023-04-09T02:19:42.215Z,29.17
2023-04-09T02:20:43.801Z,28.00
2023-04-09T02:21:47.113Z,28.95
2023-04-09T02:22:48.761Z,29.33
2023-04-09T02:23:51.307Z,29.50
2023-04-09T02:24:52.880Z,28.02
2023-04-09T02:25:55.797Z,28.17
2023-04-09T02:26:57.854Z,28.80
2023-04-09T02:28:00.358Z,29.65
2023-04-09T02:29:01.944Z,29.95
2023-04-09T02:30:06.810Z,29.38
2023-04-09T02:31:08.386Z,28.67
2023-04-09T02:32:10.966Z,29.80
2023-04-09T02:33:12.500Z,29.35
2023-04-09T02:34:15.041Z,28.63
2023-04-09T02:35:16.582Z,29.20
2023-04-09T02:36:19.094Z,28.13
2023-04-09T02:37:20.775Z,28.77
2023-04-09T02:38:23.408Z,28.35
2023-04-09T02:39:25.139Z,30.48
2023-04-09T02:40:27.981Z,29.42
2023-04-09T02:41:31.744Z,28.60
2023-04-09T02:42:34.412Z,28.48
2023-04-09T02:43:36.162Z,29.00
2023-04-09T02:44:38.624Z,28.17
2023-04-09T02:45:42.488Z,28.48
2023-04-09T02:46:45.973Z,28.90
2023-04-09T02:47:47.583Z,29.42
2023-04-09T02:48:50.399Z,28.27
2023-04-09T02:49:52.212Z,30.17
2023-04-09T02:50:55.198Z,29.13
2023-04-09T02:51:56.761Z,28.05
2023-04-09T02:52:59.792Z,29.42
2023-04-09T02:54:01.547Z,29.38
2023-04-09T02:55:04.225Z,29.67
2023-04-09T02:56:06.084Z,28.80
2023-04-09T02:57:08.598Z,28.92
2023-04-09T02:58:10.221Z,28.95
2023-04-09T02:59:12.760Z,29.40
2023-04-09T03:00:14.938Z,28.25
2023-04-09T03:01:18.863Z,28.25
2023-04-09T03:02:20.826Z,27.80
2023-04-09T03:03:23.622Z,29.20
2023-04-09T03:04:25.450Z,29.20
2023-04-09T03:05:28.097Z,29.70
2023-04-09T03:06:29.647Z,28.60
2023-04-09T03:07:32.161Z,29.02
2023-04-09T03:08:33.713Z,29.15
2023-04-09T03:09:36.248Z,29.27
2023-04-09T03:10:37.872Z,29.83
2023-04-09T03:11:40.341Z,30.23
2023-04-09T03:12:44.519Z,31.05
2023-04-09T03:13:47.038Z,28.45
2023-04-09T03:14:48.776Z,29.10
2023-04-09T03:15:52.779Z,29.05
2023-04-09T03:16:55.663Z,29.13
2023-04-09T03:17:58.185Z,29.10
2023-04-09T03:18:59.701Z,29.42
2023-04-09T03:20:02.216Z,29.98
2023-04-09T03:21:07.150Z,30.13
2023-04-09T03:22:08.708Z,29.65
2023-04-09T03:23:11.495Z,29.95
2023-04-09T03:24:13.005Z,29.67
2023-04-09T03:25:15.797Z,28.20
2023-04-09T03:26:17.390Z,29.77
2023-04-09T03:27:19.846Z,30.48
2023-04-09T03:28:21.419Z,29.67
2023-04-09T03:29:23.900Z,30.17
2023-04-09T03:30:25.710Z,30.42
2023-04-09T03:31:28.228Z,30.52
2023-04-09T03:32:31.187Z,32.55
2023-04-09T03:33:33.672Z,30.08
2023-04-09T03:34:35.446Z,29.25
2023-04-09T03:35:37.988Z,29.65
2023-04-09T03:36:40.559Z,29.65
2023-04-09T03:37:42.272Z,30.08
2023-04-09T03:38:44.760Z,29.33
2023-04-09T03:39:46.333Z,30.17
2023-04-09T03:40:48.831Z,28.55
2023-04-09T03:41:50.559Z,28.52
2023-04-09T03:42:52.986Z,30.52
2023-04-09T03:43:54.493Z,28.77
2023-04-09T03:44:56.999Z,29.17
2023-04-09T03:45:58.691Z,29.23
2023-04-09T03:47:01.246Z,29.42
2023-04-09T03:48:04.338Z,28.33
2023-04-09T03:49:06.830Z,27.73
2023-04-09T03:50:09.110Z,27.50
2023-04-09T03:51:12.919Z,29.63
2023-04-09T03:52:15.372Z,28.15
2023-04-09T03:53:18.000Z,29.38
2023-04-09T03:54:19.499Z,29.83
2023-04-09T03:55:22.120Z,29.67
2023-04-09T03:56:23.660Z,29.83
2023-04-09T03:57:26.137Z,29.83
2023-04-09T03:58:27.638Z,28.52
2023-04-09T03:59:30.397Z,28.88
2023-04-09T04:00:32.075Z,29.17
2023-04-09T04:01:34.931Z,30.23
2023-04-09T04:02:36.985Z,29.27
2023-04-09T04:03:41.092Z,29.33
2023-04-09T04:04:43.065Z,28.20
2023-04-09T04:05:45.607Z,28.98
2023-04-09T04:06:47.161Z,28.85
2023-04-09T04:07:49.726Z,27.85
2023-04-09T04:08:52.359Z,28.70
2023-04-09T04:09:55.043Z,29.58
2023-04-09T04:10:56.523Z,27.42
2023-04-09T04:11:59.094Z,28.38
2023-04-09T04:13:02.058Z,29.48
2023-04-09T04:14:04.602Z,29.40
2023-04-09T04:15:07.291Z,28.50
2023-04-09T04:16:10.656Z,27.73
2023-04-09T04:17:12.265Z,28.98
2023-04-09T04:18:14.904Z,27.58
2023-04-09T04:19:17.729Z,27.98
2023-04-09T04:20:20.574Z,27.98
2023-04-09T04:21:22.145Z,28.08
2023-04-09T04:22:26.255Z,28.02
2023-04-09T04:23:27.974Z,29.17
2023-04-09T04:24:30.436Z,28.10
2023-04-09T04:25:32.025Z,28.85
2023-04-09T04:26:34.524Z,28.23
2023-04-09T04:27:36.169Z,29.35
2023-04-09T04:28:39.573Z,26.95
2023-04-09T04:29:41.187Z,27.95
2023-04-09T04:30:43.738Z,28.17
2023-04-09T04:31:45.340Z,29.75
2023-04-09T04:32:48.245Z,29.00
2023-04-09T04:33:49.924Z,28.42
2023-04-09T04:34:53.802Z,28.08
2023-04-09T04:36:04.390Z,27.88
2023-04-09T04:37:06.863Z,22.50
2023-04-09T04:38:08.511Z,27.13
2023-04-09T04:39:13.849Z,28.60
2023-04-09T04:40:15.438Z,28.05
2023-04-09T04:41:18.091Z,28.42
2023-04-09T04:42:20.020Z,27.95
2023-04-09T04:43:22.510Z,28.65
2023-04-09T04:44:24.062Z,28.23
2023-04-09T04:45:26.629Z,27.52
2023-04-09T04:46:28.127Z,28.15
2023-04-09T04:47:30.640Z,28.23
2023-04-09T04:48:32.201Z,27.52
2023-04-09T04:49:34.681Z,28.17
2023-04-09T04:50:37.502Z,27.77
2023-04-09T04:51:39.949Z,26.92
2023-04-09T04:52:41.458Z,27.30
2023-04-09T04:53:43.975Z,27.85
2023-04-09T04:54:45.494Z,27.30
2023-04-09T04:55:47.954Z,28.20
2023-04-09T04:56:49.513Z,27.05
2023-04-09T04:57:52.443Z,28.77
2023-04-09T04:58:54.375Z,27.10
2023-04-09T04:59:56.938Z,27.85
2023-04-09T05:00:58.566Z,27.27
2023-04-09T05:02:02.586Z,28.08
2023-04-09T05:03:04.361Z,27.50
2023-04-09T05:04:07.042Z,26.80
2023-04-09T05:05:08.792Z,26.80
2023-04-09T05:06:12.609Z,27.70
2023-04-09T05:07:14.055Z,28.17
2023-04-09T05:08:16.499Z,27.40
2023-04-09T05:09:18.754Z,30.55
2023-04-09T05:10:22.003Z,29.05
2023-04-09T05:11:23.713Z,27.35
2023-04-09T05:12:26.272Z,27.83
2023-04-09T05:13:27.780Z,27.55
2023-04-09T05:14:30.274Z,28.88
2023-04-09T05:15:32.005Z,27.63
2023-04-09T05:16:34.592Z,28.70
2023-04-09T05:17:36.321Z,27.92
2023-04-09T05:18:38.785Z,28.58
2023-04-09T05:19:40.314Z,28.05
2023-04-09T05:20:42.838Z,27.77
2023-04-09T05:21:47.271Z,28.15
2023-04-09T05:22:50.074Z,27.08
2023-04-09T05:23:52.503Z,28.42
2023-04-09T05:24:54.045Z,28.40
2023-04-09T05:25:56.493Z,29.80
2023-04-09T05:26:58.028Z,29.90
2023-04-09T05:28:03.964Z,30.17
2023-04-09T05:29:06.718Z,29.25
2023-04-09T05:30:09.309Z,29.35
2023-04-09T05:31:13.320Z,28.63
2023-04-09T05:32:16.073Z,29.17
2023-04-09T05:33:18.530Z,29.88
2023-04-09T05:34:20.216Z,28.73
2023-04-09T05:35:22.733Z,30.30
2023-04-09T05:36:24.392Z,29.25
2023-04-09T05:37:28.146Z,28.52
2023-04-09T05:38:32.069Z,29.65
2023-04-09T05:39:34.539Z,29.67
2023-04-09T05:40:36.258Z,29.20
2023-04-09T05:41:38.835Z,29.20
2023-04-09T05:42:40.530Z,30.10
2023-04-09T05:43:43.652Z,30.33
2023-04-09T05:44:45.258Z,40.42
2023-04-09T05:45:47.729Z,32.35
2023-04-09T05:46:50.249Z,32.67
2023-04-09T05:47:52.863Z,32.55
2023-04-09T05:48:56.371Z,31.60
2023-04-09T05:49:58.823Z,31.75
2023-04-09T05:51:01.009Z,30.77
2023-04-09T05:52:03.664Z,30.40
2023-04-09T05:53:06.735Z,30.85
2023-04-09T05:54:09.140Z,31.70
2023-04-09T05:55:10.967Z,29.20
2023-04-09T05:56:17.111Z,30.77
2023-04-09T05:57:18.657Z,34.20
2023-04-09T05:58:21.580Z,33.83
2023-04-09T05:59:23.119Z,32.88
2023-04-09T06:00:25.718Z,31.08
2023-04-09T06:01:27.831Z,30.52
2023-04-09T06:02:30.420Z,31.02
2023-04-09T06:03:32.152Z,30.63
2023-04-09T06:04:34.699Z,31.33
2023-04-09T06:05:36.256Z,30.60
2023-04-09T06:06:39.651Z,33.50
2023-04-09T06:07:41.294Z,31.73
2023-04-09T06:08:45.576Z,31.50
2023-04-09T06:09:47.095Z,31.35
2023-04-09T06:10:49.713Z,31.20
2023-04-09T06:11:51.223Z,31.73
2023-04-09T06:12:53.839Z,31.10
2023-04-09T06:13:55.371Z,32.75
2023-04-09T06:14:57.811Z,30.08
2023-04-09T06:15:59.413Z,32.88
2023-04-09T06:17:01.927Z,32.20
2023-04-09T06:18:03.467Z,31.65
2023-04-09T06:19:06.326Z,31.33
2023-04-09T06:20:08.846Z,30.67
2023-04-09T06:21:13.451Z,31.77
2023-04-09T06:22:15.975Z,29.55
2023-04-09T06:23:17.476Z,29.55
2023-04-09T06:24:21.460Z,31.63
2023-04-09T06:25:23.982Z,29.88
2023-04-09T06:26:25.865Z,30.00
2023-04-09T06:27:28.265Z,30.70
2023-04-09T06:28:29.758Z,30.25
2023-04-09T06:29:32.222Z,31.58
2023-04-09T06:30:33.897Z,30.02
2023-04-09T06:31:36.457Z,31.65
2023-04-09T06:32:51.028Z,30.58
2023-04-09T06:33:56.338Z,29.67
2023-04-09T06:34:58.165Z,30.42
2023-04-09T06:36:00.903Z,31.10
2023-04-09T06:37:02.470Z,29.42
2023-04-09T06:38:04.894Z,29.08
2023-04-09T06:39:06.669Z,29.77
2023-04-09T06:40:11.932Z,30.40
2023-04-09T06:41:14.873Z,29.52
2023-04-09T06:42:17.301Z,28.30
2023-04-09T06:43:18.826Z,30.10
2023-04-09T06:44:21.480Z,29.80
2023-04-09T06:45:23.204Z,29.67
2023-04-09T06:46:25.986Z,29.63
2023-04-09T06:47:27.516Z,29.67
2023-04-09T06:48:33.201Z,29.23
2023-04-09T06:49:34.731Z,28.52
2023-04-09T06:50:37.285Z,28.85
2023-04-09T06:51:38.907Z,29.35
2023-04-09T06:52:41.545Z,29.77
2023-04-09T06:53:44.075Z,29.55
2023-04-09T06:54:46.185Z,29.35
2023-04-09T06:55:50.309Z,28.42
2023-04-09T06:56:51.981Z,29.25
2023-04-09T06:57:54.451Z,28.65
2023-04-09T06:58:56.912Z,28.55
2023-04-09T06:59:58.421Z,28.63
2023-04-09T07:01:01.120Z,28.60
2023-04-09T07:02:02.793Z,28.80
2023-04-09T07:03:08.149Z,29.08
2023-04-09T07:04:09.919Z,27.80
2023-04-09T07:05:13.108Z,29.85
2023-04-09T07:06:14.737Z,29.70
2023-04-09T07:07:17.223Z,27.65
2023-04-09T07:08:18.827Z,29.58
2023-04-09T07:09:21.358Z,28.65
2023-04-09T07:10:22.822Z,29.00
2023-04-09T07:11:26.694Z,28.73
2023-04-09T07:12:28.251Z,27.75
2023-04-09T07:13:31.295Z,27.85
2023-04-09T07:14:33.031Z,29.10
2023-04-09T07:15:35.570Z,28.70
2023-04-09T07:16:37.134Z,28.98
2023-04-09T07:17:39.748Z,29.17
2023-04-09T07:18:42.414Z,28.55
2023-04-09T07:19:43.919Z,29.35
2023-04-09T07:20:46.371Z,29.35
2023-04-09T07:21:48.791Z,29.15
2023-04-09T07:22:51.344Z,26.15
2023-04-09T07:23:53.059Z,28.80
2023-04-09T07:24:56.499Z,28.17
2023-04-09T07:25:58.958Z,26.65
2023-04-09T07:27:04.949Z,28.10
2023-04-09T07:28:07.481Z,28.52
2023-04-09T07:29:09.072Z,27.23
2023-04-09T07:30:12.025Z,29.33
2023-04-09T07:31:15.412Z,29.00
2023-04-09T07:32:17.176Z,29.45
2023-04-09T07:33:19.701Z,29.63
2023-04-09T07:34:21.607Z,27.67
2023-04-09T07:35:24.100Z,28.48
2023-04-09T07:36:26.595Z,27.60
2023-04-09T07:37:29.063Z,27.92
2023-04-09T07:38:31.608Z,27.10
2023-04-09T07:39:33.146Z,27.88
2023-04-09T07:40:36.681Z,28.48
2023-04-09T07:41:38.313Z,28.50
2023-04-09T07:42:42.453Z,28.00
2023-04-09T07:43:45.021Z,27.42
2023-04-09T07:44:47.506Z,29.63
2023-04-09T07:45:51.306Z,28.17
2023-04-09T07:46:52.880Z,28.98
2023-04-09T07:47:55.538Z,30.17
2023-04-09T07:48:58.050Z,26.55
2023-04-09T07:50:00.601Z,28.70
2023-04-09T07:51:03.141Z,29.63
2023-04-09T07:52:05.676Z,28.15
2023-04-09T07:53:10.580Z,28.50
2023-04-09T07:54:12.982Z,27.33
2023-04-09T07:55:16.741Z,27.73
2023-04-09T07:56:18.872Z,28.83
2023-04-09T07:57:21.354Z,29.10
2023-04-09T07:58:24.174Z,28.63
2023-04-09T07:59:27.610Z,28.80
2023-04-09T08:00:30.088Z,28.58
2023-04-09T08:01:31.594Z,27.20
2023-04-09T08:02:34.204Z,28.27
2023-04-09T08:03:36.302Z,26.05
2023-04-09T08:04:39.145Z,27.67
2023-04-09T08:05:41.248Z,27.48
2023-04-09T08:06:46.686Z,28.35
2023-04-09T08:07:49.144Z,27.25
2023-04-09T08:08:50.868Z,28.05
2023-04-09T08:09:53.470Z,27.00
2023-04-09T08:10:56.186Z,28.17
2023-04-09T08:11:58.642Z,26.95
2023-04-09T08:13:00.356Z,25.83
2023-04-09T08:14:06.163Z,27.55
2023-04-09T08:15:08.598Z,28.15
2023-04-09T08:16:11.079Z,28.35
2023-04-09T08:17:12.682Z,27.88
2023-04-09T08:18:15.067Z,29.27
2023-04-09T08:19:17.497Z,28.17
2023-04-09T08:20:19.973Z,29.10
2023-04-09T08:21:21.557Z,28.80
2023-04-09T08:22:23.945Z,29.65
2023-04-09T08:23:25.913Z,32.95
2023-04-09T08:24:28.346Z,32.85
2023-04-09T08:25:29.876Z,30.52
2023-04-09T08:26:32.715Z,34.00
2023-04-09T08:27:36.060Z,34.55
2023-04-09T08:28:37.797Z,36.40
2023-04-09T08:29:42.583Z,33.92
2023-04-09T08:30:44.682Z,34.20
2023-04-09T08:31:47.138Z,32.38
2023-04-09T08:32:50.044Z,34.28
2023-04-09T08:33:53.445Z,34.15
2023-04-09T08:34:56.068Z,31.10
2023-04-09T08:35:57.642Z,31.30
2023-04-09T08:37:00.724Z,31.65
2023-04-09T08:38:02.231Z,29.80
2023-04-09T08:39:04.864Z,30.92
2023-04-09T08:40:08.731Z,28.30
2023-04-09T08:41:18.676Z,27.77
2023-04-09T08:42:23.960Z,28.38
2023-04-09T08:43:41.891Z,27.08
2023-04-09T08:44:51.266Z,27.75
2023-04-09T08:45:53.993Z,27.45
2023-04-09T08:46:58.332Z,27.85
2023-04-09T08:48:04.150Z,27.83
2023-04-09T08:49:06.993Z,28.92
2023-04-09T08:50:09.205Z,27.90
2023-04-09T08:51:14.589Z,28.27
2023-04-09T08:52:21.736Z,28.40
2023-04-09T08:53:24.447Z,27.55
2023-04-09T08:54:26.996Z,26.40
2023-04-09T08:55:28.701Z,27.35
2023-04-09T08:56:31.453Z,26.00
2023-04-09T08:57:37.496Z,26.52
2023-04-09T08:58:43.582Z,25.58
2023-04-09T08:59:46.563Z,25.20
2023-04-09T09:00:49.702Z,25.98
2023-04-09T09:02:11.241Z,25.40
2023-04-09T09:03:14.866Z,25.52
2023-04-09T09:04:16.606Z,25.30
2023-04-09T09:05:37.015Z,26.00
2023-04-09T09:06:40.036Z,26.92
2023-04-09T09:07:54.728Z,25.77
2023-04-09T09:09:05.049Z,24.38
2023-04-09T09:10:08.719Z,25.17
2023-04-09T09:11:10.229Z,26.65
2023-04-09T09:12:12.803Z,25.45
2023-04-09T09:13:20.000Z,26.40
2023-04-09T09:14:22.442Z,26.30
2023-04-09T09:15:28.821Z,26.67
2023-04-09T09:16:34.711Z,26.80
2023-04-09T09:17:55.899Z,27.23
2023-04-09T09:18:58.637Z,26.65
2023-04-09T09:20:19.930Z,27.00
2023-04-09T09:21:22.014Z,26.10
2023-04-09T09:22:25.942Z,25.27
2023-04-09T09:23:36.493Z,25.70
2023-04-09T09:24:48.476Z,24.70
2023-04-09T09:25:51.859Z,24.88
2023-04-09T09:26:55.656Z,24.95
2023-04-09T09:28:07.396Z,25.92
2023-04-09T09:29:10.605Z,25.15
2023-04-09T09:30:21.988Z,24.20
2023-04-09T09:31:24.567Z,24.67
2023-04-09T09:32:27.947Z,25.52
2023-04-09T09:33:34.460Z,23.58
2023-04-09T09:34:37.036Z,21.90
2023-04-09T09:35:49.716Z,23.60
2023-04-09T09:36:52.314Z,23.45
2023-04-09T09:38:04.221Z,23.08
2023-04-09T09:39:10.267Z,21.80
2023-04-09T09:40:27.028Z,20.15
2023-04-09T09:41:29.530Z,20.35
2023-04-09T09:42:33.050Z,20.58
2023-04-09T09:43:41.520Z,20.73
2023-04-09T09:44:43.983Z,22.95
2023-04-09T09:45:47.030Z,22.45
2023-04-09T09:46:49.599Z,24.35
2023-04-09T09:47:53.090Z,23.08
2023-04-09T09:48:55.950Z,23.63
2023-04-09T09:49:57.562Z,23.58
2023-04-09T09:51:01.437Z,23.67
2023-04-09T09:52:09.782Z,23.77
2023-04-09T09:53:12.141Z,22.75
2023-04-09T09:54:19.472Z,22.75
2023-04-09T09:55:24.133Z,22.13
2023-04-09T09:56:32.614Z,22.00
2023-04-09T09:57:40.356Z,22.20
2023-04-09T09:58:46.726Z,21.67
2023-04-09T09:59:54.991Z,22.52
2023-04-09T10:00:57.515Z,23.17
2023-04-09T10:02:02.625Z,23.33
2023-04-09T10:03:13.138Z,23.98
2023-04-09T10:04:19.025Z,22.02
2023-04-09T10:05:25.005Z,23.55
2023-04-09T10:06:28.500Z,23.48
2023-04-09T10:07:33.204Z,23.02
2023-04-09T10:08:38.164Z,23.25
2023-04-09T10:09:43.443Z,23.63
2023-04-09T10:10:48.803Z,22.50
2023-04-09T10:11:51.487Z,22.50
2023-04-09T10:12:53.129Z,23.52
2023-04-09T10:13:58.454Z,22.70
2023-04-09T10:15:05.157Z,23.60
2023-04-09T10:16:08.780Z,22.23
2023-04-09T10:17:11.664Z,23.95
2023-04-09T10:18:16.012Z,23.67
2023-04-09T10:19:17.922Z,23.00
2023-04-09T10:20:27.101Z,24.25
2023-04-09T10:21:37.699Z,23.73
2023-04-09T10:22:39.920Z,23.92
2023-04-09T10:23:44.905Z,22.58
2023-04-09T10:24:47.318Z,23.25
2023-04-09T10:25:49.890Z,22.63
2023-04-09T10:26:55.364Z,22.50
2023-04-09T10:28:01.482Z,22.50
2023-04-09T10:29:06.816Z,22.25
2023-04-09T10:30:10.636Z,22.48
2023-04-09T10:31:13.368Z,21.90
2023-04-09T10:32:21.543Z,22.90
2023-04-09T10:33:27.871Z,23.20
2023-04-09T10:34:30.565Z,22.75
2023-04-09T10:35:32.143Z,21.88
2023-04-09T10:36:34.626Z,20.75
2023-04-09T10:37:37.091Z,21.10
2023-04-09T10:38:41.133Z,20.05
2023-04-09T10:39:47.277Z,20.05
2023-04-09T10:40:50.775Z,19.95
2023-04-09T10:41:55.561Z,20.23
2023-04-09T10:42:59.394Z,20.85
2023-04-09T10:44:01.829Z,20.17
2023-04-09T10:45:10.661Z,19.08
2023-04-09T10:46:29.494Z,19.23
2023-04-09T10:47:33.994Z,19.63
2023-04-09T10:48:37.030Z,18.73
2023-04-09T10:49:40.656Z,18.38
2023-04-09T10:50:45.086Z,18.52
2023-04-09T10:51:50.900Z,17.98
2023-04-09T10:52:54.944Z,18.05
2023-04-09T10:53:56.404Z,19.38
2023-04-09T10:54:58.920Z,17.75
2023-04-09T10:56:01.959Z,17.98
2023-04-09T10:57:20.174Z,17.33
2023-04-09T10:58:22.844Z,18.23
2023-04-09T10:59:24.432Z,16.98
2023-04-09T11:00:26.880Z,18.67
2023-04-09T11:01:28.508Z,18.27
2023-04-09T11:03:12.118Z,17.85
2023-04-09T11:04:21.576Z,17.52
2023-04-09T11:05:28.957Z,18.58
2023-04-09T11:06:32.327Z,17.33
2023-04-09T11:07:40.465Z,17.77
2023-04-09T11:08:45.340Z,17.70
2023-04-09T11:09:47.657Z,15.50
2023-04-09T11:10:52.254Z,18.27
2023-04-09T11:11:53.957Z,16.58
2023-04-09T11:12:56.389Z,17.08
2023-04-09T11:13:59.834Z,16.60
2023-04-09T11:15:01.318Z,17.23
2023-04-09T11:16:06.854Z,18.13
2023-04-09T11:17:08.833Z,17.88
2023-04-09T11:18:15.484Z,15.90
2023-04-09T11:19:19.060Z,16.52
2023-04-09T11:20:23.321Z,17.88
2023-04-09T11:21:27.713Z,17.33
2023-04-09T11:22:30.293Z,16.83
2023-04-09T11:23:34.052Z,18.20
2023-04-09T11:24:41.956Z,18.13
2023-04-09T11:25:49.410Z,17.65
2023-04-09T11:26:51.281Z,18.05
2023-04-09T11:27:54.382Z,17.48
2023-04-09T11:28:58.604Z,16.27
2023-04-09T11:30:00.090Z,17.55
2023-04-09T11:31:06.216Z,16.65
2023-04-09T11:32:07.810Z,16.80
2023-04-09T11:33:10.768Z,17.55
2023-04-09T11:34:13.539Z,17.98
2023-04-09T11:35:17.826Z,18.63
2023-04-09T11:36:20.443Z,16.88
2023-04-09T11:37:22.549Z,16.83
2023-04-09T11:38:27.598Z,16.80
2023-04-09T11:39:29.178Z,16.85
2023-04-09T11:40:31.666Z,16.30
2023-04-09T11:41:33.956Z,18.70
2023-04-09T11:42:37.818Z,17.77
2023-04-09T11:43:40.300Z,17.23
2023-04-09T11:44:42.189Z,16.63
2023-04-09T11:45:47.088Z,17.05
2023-04-09T11:46:49.167Z,16.42
2023-04-09T11:47:52.641Z,16.33
2023-04-09T11:48:55.867Z,16.27
2023-04-09T11:49:58.444Z,15.85
2023-04-09T11:51:03.964Z,15.27
2023-04-09T11:52:05.986Z,15.23
2023-04-09T11:53:19.139Z,16.85
2023-04-09T11:54:20.805Z,15.93
2023-04-09T11:55:27.143Z,15.55
2023-04-09T11:56:29.245Z,16.52
2023-04-09T11:57:43.813Z,16.92
2023-04-09T11:58:47.477Z,16.10
2023-04-09T11:59:49.111Z,16.50
2023-04-09T12:00:53.989Z,17.17
2023-04-09T12:01:58.131Z,18.52
2023-04-09T12:03:03.605Z,17.63
2023-04-09T12:04:06.948Z,17.65
2023-04-09T12:05:11.811Z,18.42
2023-04-09T12:06:16.415Z,17.15
2023-04-09T12:07:17.939Z,17.38
2023-04-09T12:08:25.449Z,17.27
2023-04-09T12:09:27.145Z,16.90
2023-04-09T12:10:31.039Z,17.13
2023-04-09T12:11:32.662Z,17.33
2023-04-09T12:12:42.616Z,17.00
2023-04-09T12:13:46.910Z,17.70
2023-04-09T12:14:48.427Z,17.40
2023-04-09T12:15:51.405Z,16.63
2023-04-09T12:16:53.027Z,17.75
2023-04-09T12:17:56.766Z,17.25
2023-04-09T12:19:01.005Z,17.08
2023-04-09T12:20:03.518Z,17.77
2023-04-09T12:21:06.112Z,17.55
2023-04-09T12:22:09.844Z,16.63
2023-04-09T12:23:13.885Z,15.13
2023-04-09T12:24:16.965Z,16.13
2023-04-09T12:25:19.394Z,14.60
2023-04-09T12:26:21.284Z,15.15
2023-04-09T12:27:24.026Z,15.30
2023-04-09T12:28:25.496Z,17.40
2023-04-09T12:29:29.848Z,17.48
2023-04-09T12:30:32.766Z,18.10
2023-04-09T12:31:34.291Z,17.67
2023-04-09T12:32:37.139Z,18.00
2023-04-09T12:33:40.357Z,17.33
2023-04-09T12:34:41.985Z,17.42
2023-04-09T12:35:44.764Z,17.90
2023-04-09T12:36:46.400Z,18.35
2023-04-09T12:37:50.713Z,17.02
2023-04-09T12:38:53.420Z,16.05
2023-04-09T12:39:55.372Z,16.10
2023-04-09T12:40:57.842Z,15.98
2023-04-09T12:41:59.328Z,16.70
2023-04-09T12:43:02.534Z,17.17
2023-04-09T12:44:04.927Z,16.02
2023-04-09T12:45:08.921Z,16.27
2023-04-09T12:46:10.888Z,16.30
2023-04-09T12:47:13.357Z,16.95
2023-04-09T12:48:15.816Z,14.77
2023-04-09T12:49:17.338Z,15.48
2023-04-09T12:50:21.935Z,14.15
2023-04-09T12:51:23.847Z,14.57
2023-04-09T12:52:26.436Z,13.82
2023-04-09T12:53:31.970Z,13.30
2023-04-09T12:54:33.519Z,13.07
2023-04-09T12:55:36.088Z,14.48
2023-04-09T12:56:37.794Z,14.32
2023-04-09T12:57:42.435Z,14.40
2023-04-09T12:58:44.145Z,13.60
2023-04-09T12:59:46.807Z,13.80
2023-04-09T13:00:51.911Z,14.48
2023-04-09T13:01:53.707Z,14.20
2023-04-09T13:02:56.714Z,13.40
2023-04-09T13:03:58.916Z,13.90
2023-04-09T13:05:01.793Z,15.15
2023-04-09T13:06:03.679Z,14.50
2023-04-09T13:07:06.761Z,15.35
2023-04-09T13:08:09.534Z,17.65
2023-04-09T13:09:12.501Z,17.63
2023-04-09T13:10:18.084Z,17.70
2023-04-09T13:11:22.791Z,16.30
2023-04-09T13:12:25.575Z,15.88
2023-04-09T13:13:28.626Z,15.75
2023-04-09T13:14:31.582Z,15.75
2023-04-09T13:15:33.147Z,15.68
2023-04-09T13:16:35.722Z,15.60
2023-04-09T13:17:37.325Z,15.48
2023-04-09T13:18:44.611Z,15.15
2023-04-09T13:19:46.497Z,16.25
2023-04-09T13:20:50.569Z,15.52
2023-04-09T13:21:52.348Z,17.10
2023-04-09T13:22:54.781Z,16.52
2023-04-09T13:23:56.233Z,16.55
2023-04-09T13:24:59.978Z,17.48
2023-04-09T13:26:01.550Z,16.27
2023-04-09T13:27:04.651Z,15.48
2023-04-09T13:28:06.508Z,16.15
2023-04-09T13:29:12.052Z,15.93
2023-04-09T13:30:14.724Z,15.98
2023-04-09T13:31:16.483Z,15.85
2023-04-09T13:32:21.071Z,14.98
2023-04-09T13:33:23.075Z,15.18
2023-04-09T13:34:25.970Z,14.63
2023-04-09T13:35:27.776Z,14.77
2023-04-09T13:36:31.409Z,14.98
2023-04-09T13:37:33.899Z,15.55
2023-04-09T13:38:35.623Z,14.40
2023-04-09T13:39:38.091Z,14.32